グアダラハラ の空港の天気 - METARとTAF

ドン・ミゲル・イダルゴ・イ・コスティージャ国際空港 ( MMGL / GDL ) - メキシコ ハリスコ州グアダラハラ
飛行場実況気象(Metar)
観測時間10/18 03:44 CDT (10/18 08:44 UTC)
風向・風速静穏 0m/s
視程10km以上
天気現象
全天の8割程度の雲 雲底高度 460m
全天を覆う雲 雲底高度 2440m
気温18℃
湿度94%
気圧1007.2hPa
METARMMGL 180844Z 00000KT 8SM BKN015 OVC080 18/17 A3009 RMK SLP072 57004 909 60015 8/57/ -RAE20
過去の天気等 Google飛行場航空写真 Wunderground天気予報

過去48時間のMETAR

飛行場予報(TAF)
発表時間: 10/18 01:19 CDT (10/18 06:19 UTC)
予報対象時間: 18日1時 CDT ~ 19日7時 CDT
風向・風速西北西 3m/s
視程10km以上
全天の4割程度の雲 雲底高度 910m
全天の8割程度の雲 雲底高度 2440m
18日13時 CDT から
風向・風速西北西 4m/s
視程10km以上
全天の4割程度の雲 雲底高度 610m
全天の4割程度の雲 雲底高度 3050m
18日17時 CDT から
風向・風速西北西 5m/s
視程10km以上
全天の8割程度の積乱雲 雲底高度 610m
全天を覆う雲 雲底高度 2440m
18日17時 CDT ~ 18日21時 CDT に一時的に
視程4830m
天気現象雷雨
全天の8割程度の積乱雲 雲底高度 460m
TAF COR MMGL 180619Z 1806/1912 30005KT P6SM SCT030 BKN080 TX25/1821Z TN17/1812Z
FM181800 30008KT P6SM SCT020 SCT100
FM182200 30010KT P6SM BKN020CB OVC080
TEMPO 1822/1902 3SM TSRA BKN015CB